sensor_id;sensor_type;location;lat;lon;timestamp;P1;durP1;ratioP1;P2;durP2;ratioP2
37945;SDS011;23769;52.478;13.448;2023-05-10T00:01:50;7.60;;;4.88;;
37945;SDS011;23769;52.478;13.448;2023-05-10T00:04:18;8.45;;;4.63;;
37945;SDS011;23769;52.478;13.448;2023-05-10T00:06:46;9.88;;;4.45;;
37945;SDS011;23769;52.478;13.448;2023-05-10T00:09:13;7.95;;;4.90;;
37945;SDS011;23769;52.478;13.448;2023-05-10T00:11:40;8.52;;;4.93;;
37945;SDS011;23769;52.478;13.448;2023-05-10T00:14:08;12.70;;;5.40;;
37945;SDS011;23769;52.478;13.448;2023-05-10T00:16:35;8.63;;;5.10;;
37945;SDS011;23769;52.478;13.448;2023-05-10T00:19:02;10.75;;;4.45;;
37945;SDS011;23769;52.478;13.448;2023-05-10T00:21:32;10.70;;;5.05;;
37945;SDS011;23769;52.478;13.448;2023-05-10T00:24:00;7.57;;;4.93;;
37945;SDS011;23769;52.478;13.448;2023-05-10T00:26:27;8.15;;;4.47;;
37945;SDS011;23769;52.478;13.448;2023-05-10T00:28:54;5.78;;;4.43;;
37945;SDS011;23769;52.478;13.448;2023-05-10T00:31:22;23.25;;;5.22;;
37945;SDS011;23769;52.478;13.448;2023-05-10T00:33:49;7.15;;;4.93;;
37945;SDS011;23769;52.478;13.448;2023-05-10T00:36:16;8.15;;;5.50;;
37945;SDS011;23769;52.478;13.448;2023-05-10T00:38:44;7.55;;;4.90;;
37945;SDS011;23769;52.478;13.448;2023-05-10T00:41:12;7.55;;;4.82;;
37945;SDS011;23769;52.478;13.448;2023-05-10T00:43:39;10.43;;;5.07;;
37945;SDS011;23769;52.478;13.448;2023-05-10T00:46:06;8.10;;;5.15;;
37945;SDS011;23769;52.478;13.448;2023-05-10T00:48:34;11.00;;;5.82;;
37945;SDS011;23769;52.478;13.448;2023-05-10T00:51:01;7.13;;;5.43;;
37945;SDS011;23769;52.478;13.448;2023-05-10T00:53:28;9.02;;;5.47;;
37945;SDS011;23769;52.478;13.448;2023-05-10T00:55:59;6.50;;;4.85;;
37945;SDS011;23769;52.478;13.448;2023-05-10T00:58:26;8.90;;;5.20;;
37945;SDS011;23769;52.478;13.448;2023-05-10T01:00:55;7.43;;;5.70;;
37945;SDS011;23769;52.478;13.448;2023-05-10T01:03:23;8.27;;;4.53;;
37945;SDS011;23769;52.478;13.448;2023-05-10T01:05:50;6.32;;;4.88;;
37945;SDS011;23769;52.478;13.448;2023-05-10T01:08:17;7.57;;;5.57;;
37945;SDS011;23769;52.478;13.448;2023-05-10T01:10:45;8.45;;;5.38;;
37945;SDS011;23769;52.478;13.448;2023-05-10T01:13:15;7.68;;;5.10;;
37945;SDS011;23769;52.478;13.448;2023-05-10T01:15:45;6.82;;;4.68;;
37945;SDS011;23769;52.478;13.448;2023-05-10T01:18:13;6.60;;;5.07;;
37945;SDS011;23769;52.478;13.448;2023-05-10T01:20:41;10.68;;;5.05;;
37945;SDS011;23769;52.478;13.448;2023-05-10T01:23:12;7.55;;;5.32;;
37945;SDS011;23769;52.478;13.448;2023-05-10T01:25:53;7.78;;;5.25;;
37945;SDS011;23769;52.478;13.448;2023-05-10T01:28:36;8.65;;;4.85;;
37945;SDS011;23769;52.478;13.448;2023-05-10T01:31:14;7.20;;;4.72;;
37945;SDS011;23769;52.478;13.448;2023-05-10T01:33:48;8.52;;;5.65;;
37945;SDS011;23769;52.478;13.448;2023-05-10T01:36:19;10.50;;;5.70;;
37945;SDS011;23769;52.478;13.448;2023-05-10T01:38:52;6.85;;;5.10;;
37945;SDS011;23769;52.478;13.448;2023-05-10T01:41:23;8.73;;;4.97;;
37945;SDS011;23769;52.478;13.448;2023-05-10T01:43:53;9.23;;;5.00;;
37945;SDS011;23769;52.478;13.448;2023-05-10T01:46:24;7.85;;;5.07;;
37945;SDS011;23769;52.478;13.448;2023-05-10T01:48:55;10.15;;;5.82;;
37945;SDS011;23769;52.478;13.448;2023-05-10T01:51:25;8.07;;;5.22;;
37945;SDS011;23769;52.478;13.448;2023-05-10T01:53:54;8.60;;;5.57;;
37945;SDS011;23769;52.478;13.448;2023-05-10T01:56:24;7.03;;;4.88;;
37945;SDS011;23769;52.478;13.448;2023-05-10T01:58:52;9.75;;;6.00;;
37945;SDS011;23769;52.478;13.448;2023-05-10T02:01:20;8.52;;;5.65;;
37945;SDS011;23769;52.478;13.448;2023-05-10T02:03:48;7.50;;;5.22;;
37945;SDS011;23769;52.478;13.448;2023-05-10T02:06:18;6.82;;;5.00;;
37945;SDS011;23769;52.478;13.448;2023-05-10T02:08:46;8.55;;;5.70;;
37945;SDS011;23769;52.478;13.448;2023-05-10T02:11:14;8.48;;;4.80;;
37945;SDS011;23769;52.478;13.448;2023-05-10T02:13:41;9.02;;;5.35;;
37945;SDS011;23769;52.478;13.448;2023-05-10T02:16:10;8.02;;;5.47;;
37945;SDS011;23769;52.478;13.448;2023-05-10T02:18:39;8.15;;;5.35;;
37945;SDS011;23769;52.478;13.448;2023-05-10T02:21:08;8.30;;;4.70;;
37945;SDS011;23769;52.478;13.448;2023-05-10T02:23:37;7.53;;;4.82;;
37945;SDS011;23769;52.478;13.448;2023-05-10T02:26:04;9.35;;;5.45;;
37945;SDS011;23769;52.478;13.448;2023-05-10T02:28:32;8.48;;;5.40;;
37945;SDS011;23769;52.478;13.448;2023-05-10T02:33:44;8.18;;;5.50;;
37945;SDS011;23769;52.478;13.448;2023-05-10T02:36:12;7.35;;;4.90;;
37945;SDS011;23769;52.478;13.448;2023-05-10T02:38:42;10.63;;;5.20;;
37945;SDS011;23769;52.478;13.448;2023-05-10T02:41:10;8.70;;;5.22;;
37945;SDS011;23769;52.478;13.448;2023-05-10T02:43:38;8.20;;;5.15;;
37945;SDS011;23769;52.478;13.448;2023-05-10T02:46:06;7.85;;;5.07;;
37945;SDS011;23769;52.478;13.448;2023-05-10T02:48:33;7.35;;;5.47;;
37945;SDS011;23769;52.478;13.448;2023-05-10T02:51:03;6.03;;;4.50;;
37945;SDS011;23769;52.478;13.448;2023-05-10T02:53:33;9.00;;;5.00;;
37945;SDS011;23769;52.478;13.448;2023-05-10T02:56:04;7.28;;;5.05;;
37945;SDS011;23769;52.478;13.448;2023-05-10T02:58:32;9.85;;;5.75;;
37945;SDS011;23769;52.478;13.448;2023-05-10T03:01:00;9.07;;;5.00;;
37945;SDS011;23769;52.478;13.448;2023-05-10T03:03:27;6.97;;;4.88;;
37945;SDS011;23769;52.478;13.448;2023-05-10T03:05:54;9.05;;;5.28;;
37945;SDS011;23769;52.478;13.448;2023-05-10T03:08:23;8.95;;;4.57;;
37945;SDS011;23769;52.478;13.448;2023-05-10T03:10:54;8.18;;;4.90;;
37945;SDS011;23769;52.478;13.448;2023-05-10T03:13:25;8.47;;;4.80;;
37945;SDS011;23769;52.478;13.448;2023-05-10T03:15:56;7.00;;;5.07;;
37945;SDS011;23769;52.478;13.448;2023-05-10T03:18:28;9.55;;;6.03;;
37945;SDS011;23769;52.478;13.448;2023-05-10T03:20:57;6.85;;;4.82;;
37945;SDS011;23769;52.478;13.448;2023-05-10T03:23:26;8.65;;;4.60;;
37945;SDS011;23769;52.478;13.448;2023-05-10T03:25:54;8.18;;;4.78;;
37945;SDS011;23769;52.478;13.448;2023-05-10T03:28:21;7.72;;;4.50;;
37945;SDS011;23769;52.478;13.448;2023-05-10T03:30:53;9.00;;;5.65;;
37945;SDS011;23769;52.478;13.448;2023-05-10T03:33:20;7.35;;;4.88;;
37945;SDS011;23769;52.478;13.448;2023-05-10T03:35:47;9.77;;;4.97;;
37945;SDS011;23769;52.478;13.448;2023-05-10T03:38:15;8.80;;;4.50;;
37945;SDS011;23769;52.478;13.448;2023-05-10T03:40:42;7.88;;;4.43;;
37945;SDS011;23769;52.478;13.448;2023-05-10T03:43:09;7.03;;;4.22;;
37945;SDS011;23769;52.478;13.448;2023-05-10T03:45:36;7.65;;;4.30;;
37945;SDS011;23769;52.478;13.448;2023-05-10T03:48:05;9.73;;;5.18;;
37945;SDS011;23769;52.478;13.448;2023-05-10T03:50:32;8.38;;;4.68;;
37945;SDS011;23769;52.478;13.448;2023-05-10T03:53:00;9.13;;;5.18;;
37945;SDS011;23769;52.478;13.448;2023-05-10T03:55:27;7.70;;;4.32;;
37945;SDS011;23769;52.478;13.448;2023-05-10T03:57:59;9.73;;;5.35;;
37945;SDS011;23769;52.478;13.448;2023-05-10T04:00:26;10.02;;;4.50;;
37945;SDS011;23769;52.478;13.448;2023-05-10T04:02:53;7.03;;;4.28;;
37945;SDS011;23769;52.478;13.448;2023-05-10T04:05:22;10.00;;;4.53;;
37945;SDS011;23769;52.478;13.448;2023-05-10T04:07:49;4.97;;;4.15;;
37945;SDS011;23769;52.478;13.448;2023-05-10T04:10:17;8.32;;;4.40;;
37945;SDS011;23769;52.478;13.448;2023-05-10T04:12:44;7.47;;;4.25;;
37945;SDS011;23769;52.478;13.448;2023-05-10T04:15:11;9.77;;;4.40;;
37945;SDS011;23769;52.478;13.448;2023-05-10T04:17:38;6.88;;;4.22;;
37945;SDS011;23769;52.478;13.448;2023-05-10T04:20:05;10.68;;;4.75;;
37945;SDS011;23769;52.478;13.448;2023-05-10T04:22:34;9.05;;;4.25;;
37945;SDS011;23769;52.478;13.448;2023-05-10T04:25:01;7.22;;;4.32;;
37945;SDS011;23769;52.478;13.448;2023-05-10T04:27:29;7.18;;;4.38;;
37945;SDS011;23769;52.478;13.448;2023-05-10T04:29:56;11.30;;;4.18;;
37945;SDS011;23769;52.478;13.448;2023-05-10T04:32:23;10.02;;;4.78;;
37945;SDS011;23769;52.478;13.448;2023-05-10T04:34:50;6.63;;;3.88;;
37945;SDS011;23769;52.478;13.448;2023-05-10T04:37:18;8.77;;;5.00;;
37945;SDS011;23769;52.478;13.448;2023-05-10T04:39:47;8.25;;;4.70;;
37945;SDS011;23769;52.478;13.448;2023-05-10T04:42:15;8.15;;;4.03;;
37945;SDS011;23769;52.478;13.448;2023-05-10T04:44:42;11.68;;;4.75;;
37945;SDS011;23769;52.478;13.448;2023-05-10T04:47:09;7.28;;;4.15;;
37945;SDS011;23769;52.478;13.448;2023-05-10T04:49:38;6.85;;;3.58;;
37945;SDS011;23769;52.478;13.448;2023-05-10T04:52:05;7.93;;;3.70;;
37945;SDS011;23769;52.478;13.448;2023-05-10T04:54:32;5.70;;;3.42;;
37945;SDS011;23769;52.478;13.448;2023-05-10T04:57:01;6.63;;;3.45;;
37945;SDS011;23769;52.478;13.448;2023-05-10T04:59:28;6.82;;;3.30;;
37945;SDS011;23769;52.478;13.448;2023-05-10T05:01:55;6.30;;;3.75;;
37945;SDS011;23769;52.478;13.448;2023-05-10T05:04:22;5.47;;;3.20;;
37945;SDS011;23769;52.478;13.448;2023-05-10T05:06:50;4.65;;;3.20;;
37945;SDS011;23769;52.478;13.448;2023-05-10T05:09:17;6.53;;;3.60;;
37945;SDS011;23769;52.478;13.448;2023-05-10T05:11:44;5.60;;;3.30;;
37945;SDS011;23769;52.478;13.448;2023-05-10T05:14:12;5.65;;;2.90;;
37945;SDS011;23769;52.478;13.448;2023-05-10T05:16:40;6.18;;;3.08;;
37945;SDS011;23769;52.478;13.448;2023-05-10T05:19:07;8.60;;;3.53;;
37945;SDS011;23769;52.478;13.448;2023-05-10T05:21:34;5.68;;;3.15;;
37945;SDS011;23769;52.478;13.448;2023-05-10T05:24:01;5.28;;;3.40;;
37945;SDS011;23769;52.478;13.448;2023-05-10T05:26:28;3.85;;;2.85;;
37945;SDS011;23769;52.478;13.448;2023-05-10T05:28:56;7.25;;;3.28;;
37945;SDS011;23769;52.478;13.448;2023-05-10T05:31:24;6.38;;;2.90;;
37945;SDS011;23769;52.478;13.448;2023-05-10T05:33:51;7.63;;;3.28;;
37945;SDS011;23769;52.478;13.448;2023-05-10T05:36:18;8.40;;;5.55;;
37945;SDS011;23769;52.478;13.448;2023-05-10T05:38:46;6.00;;;4.55;;
37945;SDS011;23769;52.478;13.448;2023-05-10T05:41:13;6.68;;;3.53;;
37945;SDS011;23769;52.478;13.448;2023-05-10T05:43:40;4.32;;;3.25;;
37945;SDS011;23769;52.478;13.448;2023-05-10T05:46:07;5.57;;;4.13;;
37945;SDS011;23769;52.478;13.448;2023-05-10T05:48:36;7.82;;;3.00;;
37945;SDS011;23769;52.478;13.448;2023-05-10T05:51:03;9.65;;;3.17;;
37945;SDS011;23769;52.478;13.448;2023-05-10T05:53:30;4.63;;;2.85;;
37945;SDS011;23769;52.478;13.448;2023-05-10T05:55:58;6.85;;;5.30;;
37945;SDS011;23769;52.478;13.448;2023-05-10T05:58:25;4.38;;;2.60;;
37945;SDS011;23769;52.478;13.448;2023-05-10T06:00:53;6.00;;;3.10;;
37945;SDS011;23769;52.478;13.448;2023-05-10T06:03:20;5.43;;;2.75;;
37945;SDS011;23769;52.478;13.448;2023-05-10T06:05:49;4.55;;;2.97;;
37945;SDS011;23769;52.478;13.448;2023-05-10T06:08:16;5.57;;;2.50;;
37945;SDS011;23769;52.478;13.448;2023-05-10T06:10:43;4.57;;;2.35;;
37945;SDS011;23769;52.478;13.448;2023-05-10T06:13:10;5.85;;;2.40;;
37945;SDS011;23769;52.478;13.448;2023-05-10T06:15:37;6.40;;;2.75;;
37945;SDS011;23769;52.478;13.448;2023-05-10T06:18:05;6.88;;;3.00;;
37945;SDS011;23769;52.478;13.448;2023-05-10T06:20:32;4.45;;;2.60;;
37945;SDS011;23769;52.478;13.448;2023-05-10T06:23:00;10.25;;;3.13;;
37945;SDS011;23769;52.478;13.448;2023-05-10T06:25:27;3.50;;;2.65;;
37945;SDS011;23769;52.478;13.448;2023-05-10T06:27:55;4.47;;;2.33;;
37945;SDS011;23769;52.478;13.448;2023-05-10T06:30:23;5.75;;;2.40;;
37945;SDS011;23769;52.478;13.448;2023-05-10T06:32:53;4.95;;;2.20;;
37945;SDS011;23769;52.478;13.448;2023-05-10T06:35:20;5.07;;;2.80;;
37945;SDS011;23769;52.478;13.448;2023-05-10T06:37:48;3.75;;;2.20;;
37945;SDS011;23769;52.478;13.448;2023-05-10T06:40:17;5.97;;;2.53;;
37945;SDS011;23769;52.478;13.448;2023-05-10T06:42:44;2.67;;;2.25;;
37945;SDS011;23769;52.478;13.448;2023-05-10T06:45:11;4.72;;;2.50;;
37945;SDS011;23769;52.478;13.448;2023-05-10T06:47:39;5.55;;;2.13;;
37945;SDS011;23769;52.478;13.448;2023-05-10T06:50:07;3.40;;;2.22;;
37945;SDS011;23769;52.478;13.448;2023-05-10T06:52:34;4.25;;;2.33;;
37945;SDS011;23769;52.478;13.448;2023-05-10T06:55:01;8.10;;;2.80;;
37945;SDS011;23769;52.478;13.448;2023-05-10T06:57:30;7.38;;;2.47;;
37945;SDS011;23769;52.478;13.448;2023-05-10T06:59:57;3.22;;;2.45;;
37945;SDS011;23769;52.478;13.448;2023-05-10T07:02:25;7.10;;;2.53;;
37945;SDS011;23769;52.478;13.448;2023-05-10T07:04:52;4.50;;;2.25;;
37945;SDS011;23769;52.478;13.448;2023-05-10T07:07:19;3.83;;;2.10;;
37945;SDS011;23769;52.478;13.448;2023-05-10T07:09:46;6.60;;;2.70;;
37945;SDS011;23769;52.478;13.448;2023-05-10T07:12:14;4.72;;;2.35;;
37945;SDS011;23769;52.478;13.448;2023-05-10T07:14:43;5.50;;;2.53;;
37945;SDS011;23769;52.478;13.448;2023-05-10T07:17:10;3.70;;;2.35;;
37945;SDS011;23769;52.478;13.448;2023-05-10T07:19:37;5.07;;;2.33;;
37945;SDS011;23769;52.478;13.448;2023-05-10T07:22:05;5.35;;;2.30;;
37945;SDS011;23769;52.478;13.448;2023-05-10T07:24:32;5.32;;;2.40;;
37945;SDS011;23769;52.478;13.448;2023-05-10T07:27:00;3.45;;;2.28;;
37945;SDS011;23769;52.478;13.448;2023-05-10T07:29:27;6.03;;;2.38;;
37945;SDS011;23769;52.478;13.448;2023-05-10T07:31:56;5.18;;;2.38;;
37945;SDS011;23769;52.478;13.448;2023-05-10T07:34:23;3.75;;;2.20;;
37945;SDS011;23769;52.478;13.448;2023-05-10T07:36:50;7.22;;;2.33;;
37945;SDS011;23769;52.478;13.448;2023-05-10T07:39:17;4.47;;;2.05;;
37945;SDS011;23769;52.478;13.448;2023-05-10T07:41:45;2.53;;;1.95;;
37945;SDS011;23769;52.478;13.448;2023-05-10T07:44:12;2.95;;;2.35;;
37945;SDS011;23769;52.478;13.448;2023-05-10T07:46:39;3.05;;;2.10;;
37945;SDS011;23769;52.478;13.448;2023-05-10T07:49:08;3.72;;;2.10;;
37945;SDS011;23769;52.478;13.448;2023-05-10T07:51:35;4.10;;;2.45;;
37945;SDS011;23769;52.478;13.448;2023-05-10T07:54:02;3.38;;;2.15;;
37945;SDS011;23769;52.478;13.448;2023-05-10T07:56:30;8.73;;;2.45;;
37945;SDS011;23769;52.478;13.448;2023-05-10T07:58:58;4.65;;;2.20;;
37945;SDS011;23769;52.478;13.448;2023-05-10T08:01:25;3.63;;;2.40;;
37945;SDS011;23769;52.478;13.448;2023-05-10T08:03:53;6.50;;;2.30;;
37945;SDS011;23769;52.478;13.448;2023-05-10T08:06:22;7.70;;;2.42;;
37945;SDS011;23769;52.478;13.448;2023-05-10T08:08:51;5.32;;;2.65;;
37945;SDS011;23769;52.478;13.448;2023-05-10T08:11:19;3.40;;;2.50;;
37945;SDS011;23769;52.478;13.448;2023-05-10T08:13:47;5.20;;;2.60;;
37945;SDS011;23769;52.478;13.448;2023-05-10T08:16:14;4.15;;;2.38;;
37945;SDS011;23769;52.478;13.448;2023-05-10T08:18:44;3.28;;;2.13;;
37945;SDS011;23769;52.478;13.448;2023-05-10T08:21:11;4.10;;;2.65;;
37945;SDS011;23769;52.478;13.448;2023-05-10T08:23:40;5.30;;;2.53;;
37945;SDS011;23769;52.478;13.448;2023-05-10T08:26:08;3.40;;;2.38;;
37945;SDS011;23769;52.478;13.448;2023-05-10T08:28:35;7.10;;;2.78;;
37945;SDS011;23769;52.478;13.448;2023-05-10T08:31:03;4.63;;;2.22;;
37945;SDS011;23769;52.478;13.448;2023-05-10T08:33:31;4.13;;;2.60;;
37945;SDS011;23769;52.478;13.448;2023-05-10T08:35:58;6.82;;;2.63;;
37945;SDS011;23769;52.478;13.448;2023-05-10T08:38:25;5.82;;;2.45;;
37945;SDS011;23769;52.478;13.448;2023-05-10T08:40:54;8.02;;;2.83;;
37945;SDS011;23769;52.478;13.448;2023-05-10T08:43:23;4.40;;;2.22;;
37945;SDS011;23769;52.478;13.448;2023-05-10T08:45:51;4.25;;;2.50;;
37945;SDS011;23769;52.478;13.448;2023-05-10T08:48:20;6.47;;;3.00;;
37945;SDS011;23769;52.478;13.448;2023-05-10T08:50:49;3.55;;;1.92;;
37945;SDS011;23769;52.478;13.448;2023-05-10T08:53:19;5.75;;;2.40;;
37945;SDS011;23769;52.478;13.448;2023-05-10T08:55:46;6.35;;;2.55;;
37945;SDS011;23769;52.478;13.448;2023-05-10T08:58:15;5.00;;;2.97;;
37945;SDS011;23769;52.478;13.448;2023-05-10T09:00:44;4.57;;;2.78;;
37945;SDS011;23769;52.478;13.448;2023-05-10T09:03:12;7.90;;;2.85;;
37945;SDS011;23769;52.478;13.448;2023-05-10T09:05:39;4.32;;;2.70;;
37945;SDS011;23769;52.478;13.448;2023-05-10T09:08:07;3.60;;;2.80;;
37945;SDS011;23769;52.478;13.448;2023-05-10T09:10:35;3.65;;;2.38;;
37945;SDS011;23769;52.478;13.448;2023-05-10T09:13:03;4.18;;;2.53;;
37945;SDS011;23769;52.478;13.448;2023-05-10T09:15:32;5.78;;;2.88;;
37945;SDS011;23769;52.478;13.448;2023-05-10T09:17:59;3.20;;;2.40;;
37945;SDS011;23769;52.478;13.448;2023-05-10T09:20:27;4.00;;;2.58;;
37945;SDS011;23769;52.478;13.448;2023-05-10T09:22:54;4.70;;;2.80;;
37945;SDS011;23769;52.478;13.448;2023-05-10T09:25:22;4.25;;;2.78;;
37945;SDS011;23769;52.478;13.448;2023-05-10T09:27:49;5.53;;;3.20;;
37945;SDS011;23769;52.478;13.448;2023-05-10T09:30:16;4.78;;;2.22;;
37945;SDS011;23769;52.478;13.448;2023-05-10T09:32:46;3.13;;;2.00;;
37945;SDS011;23769;52.478;13.448;2023-05-10T09:35:15;4.75;;;2.05;;
37945;SDS011;23769;52.478;13.448;2023-05-10T09:37:43;6.70;;;2.58;;
37945;SDS011;23769;52.478;13.448;2023-05-10T09:40:12;4.10;;;2.40;;
37945;SDS011;23769;52.478;13.448;2023-05-10T09:42:39;9.55;;;4.95;;
37945;SDS011;23769;52.478;13.448;2023-05-10T09:45:07;11.40;;;5.82;;
37945;SDS011;23769;52.478;13.448;2023-05-10T09:47:35;5.25;;;3.00;;
37945;SDS011;23769;52.478;13.448;2023-05-10T09:50:04;3.63;;;2.53;;
37945;SDS011;23769;52.478;13.448;2023-05-10T09:52:31;5.07;;;2.40;;
37945;SDS011;23769;52.478;13.448;2023-05-10T09:55:12;4.40;;;2.42;;
37945;SDS011;23769;52.478;13.448;2023-05-10T09:57:39;4.03;;;2.35;;
37945;SDS011;23769;52.478;13.448;2023-05-10T10:00:07;5.60;;;2.72;;
37945;SDS011;23769;52.478;13.448;2023-05-10T10:02:35;3.08;;;2.30;;
37945;SDS011;23769;52.478;13.448;2023-05-10T10:05:03;3.90;;;2.30;;
37945;SDS011;23769;52.478;13.448;2023-05-10T10:07:30;6.53;;;2.85;;
37945;SDS011;23769;52.478;13.448;2023-05-10T10:09:58;3.90;;;2.72;;
37945;SDS011;23769;52.478;13.448;2023-05-10T10:12:26;3.95;;;2.88;;
37945;SDS011;23769;52.478;13.448;2023-05-10T10:14:53;6.68;;;2.70;;
37945;SDS011;23769;52.478;13.448;2023-05-10T10:17:20;4.28;;;2.53;;
37945;SDS011;23769;52.478;13.448;2023-05-10T10:19:48;4.22;;;2.65;;
37945;SDS011;23769;52.478;13.448;2023-05-10T10:22:16;5.32;;;2.40;;
37945;SDS011;23769;52.478;13.448;2023-05-10T10:24:43;4.10;;;2.63;;
37945;SDS011;23769;52.478;13.448;2023-05-10T10:27:14;6.15;;;2.40;;
37945;SDS011;23769;52.478;13.448;2023-05-10T10:29:44;3.97;;;2.25;;
37945;SDS011;23769;52.478;13.448;2023-05-10T10:32:19;5.07;;;2.40;;
37945;SDS011;23769;52.478;13.448;2023-05-10T10:34:48;3.05;;;2.53;;
37945;SDS011;23769;52.478;13.448;2023-05-10T10:37:17;6.88;;;2.60;;
37945;SDS011;23769;52.478;13.448;2023-05-10T10:39:44;4.38;;;2.65;;
37945;SDS011;23769;52.478;13.448;2023-05-10T10:42:14;4.88;;;2.47;;
37945;SDS011;23769;52.478;13.448;2023-05-10T10:45:11;11.00;;;2.60;;
37945;SDS011;23769;52.478;13.448;2023-05-10T10:47:39;5.22;;;2.40;;
37945;SDS011;23769;52.478;13.448;2023-05-10T10:50:08;4.10;;;2.00;;
37945;SDS011;23769;52.478;13.448;2023-05-10T10:52:39;4.50;;;2.47;;
37945;SDS011;23769;52.478;13.448;2023-05-10T10:55:07;5.55;;;2.30;;
37945;SDS011;23769;52.478;13.448;2023-05-10T10:57:42;4.95;;;2.40;;
37945;SDS011;23769;52.478;13.448;2023-05-10T11:00:23;4.88;;;2.50;;
37945;SDS011;23769;52.478;13.448;2023-05-10T11:02:51;4.75;;;2.35;;
37945;SDS011;23769;52.478;13.448;2023-05-10T11:05:34;3.72;;;2.50;;
37945;SDS011;23769;52.478;13.448;2023-05-10T11:08:08;8.40;;;2.40;;
37945;SDS011;23769;52.478;13.448;2023-05-10T11:10:36;4.18;;;2.00;;
37945;SDS011;23769;52.478;13.448;2023-05-10T11:13:03;8.68;;;2.90;;
37945;SDS011;23769;52.478;13.448;2023-05-10T11:15:31;3.45;;;2.42;;
37945;SDS011;23769;52.478;13.448;2023-05-10T11:17:58;3.83;;;2.15;;
37945;SDS011;23769;52.478;13.448;2023-05-10T11:20:27;7.15;;;2.47;;
37945;SDS011;23769;52.478;13.448;2023-05-10T11:23:00;3.90;;;2.20;;
37945;SDS011;23769;52.478;13.448;2023-05-10T11:25:42;6.78;;;2.10;;
37945;SDS011;23769;52.478;13.448;2023-05-10T11:28:10;7.15;;;2.47;;
37945;SDS011;23769;52.478;13.448;2023-05-10T11:30:38;3.75;;;2.40;;
37945;SDS011;23769;52.478;13.448;2023-05-10T11:33:05;4.60;;;2.78;;
37945;SDS011;23769;52.478;13.448;2023-05-10T11:35:36;3.83;;;2.72;;
37945;SDS011;23769;52.478;13.448;2023-05-10T11:38:05;4.07;;;2.55;;
37945;SDS011;23769;52.478;13.448;2023-05-10T11:40:32;5.47;;;2.20;;
37945;SDS011;23769;52.478;13.448;2023-05-10T11:43:01;4.10;;;2.10;;
37945;SDS011;23769;52.478;13.448;2023-05-10T11:45:28;3.75;;;2.55;;
37945;SDS011;23769;52.478;13.448;2023-05-10T11:47:56;6.32;;;2.88;;
37945;SDS011;23769;52.478;13.448;2023-05-10T11:50:24;6.78;;;2.67;;
37945;SDS011;23769;52.478;13.448;2023-05-10T11:52:54;6.20;;;2.25;;
37945;SDS011;23769;52.478;13.448;2023-05-10T11:55:22;5.80;;;2.38;;
37945;SDS011;23769;52.478;13.448;2023-05-10T11:57:51;13.98;;;2.40;;
37945;SDS011;23769;52.478;13.448;2023-05-10T12:00:20;7.68;;;2.30;;
37945;SDS011;23769;52.478;13.448;2023-05-10T12:02:47;4.70;;;2.30;;
37945;SDS011;23769;52.478;13.448;2023-05-10T12:05:15;6.30;;;2.13;;
37945;SDS011;23769;52.478;13.448;2023-05-10T12:07:42;6.15;;;2.83;;
37945;SDS011;23769;52.478;13.448;2023-05-10T12:10:10;3.63;;;2.20;;
37945;SDS011;23769;52.478;13.448;2023-05-10T12:12:40;5.03;;;2.45;;
37945;SDS011;23769;52.478;13.448;2023-05-10T12:15:11;4.13;;;2.13;;
37945;SDS011;23769;52.478;13.448;2023-05-10T12:17:40;4.97;;;2.45;;
37945;SDS011;23769;52.478;13.448;2023-05-10T12:20:14;4.00;;;2.35;;
37945;SDS011;23769;52.478;13.448;2023-05-10T12:22:43;5.43;;;2.50;;
37945;SDS011;23769;52.478;13.448;2023-05-10T12:25:12;2.40;;;2.00;;
37945;SDS011;23769;52.478;13.448;2023-05-10T12:27:40;4.70;;;2.63;;
37945;SDS011;23769;52.478;13.448;2023-05-10T12:30:07;4.10;;;2.10;;
37945;SDS011;23769;52.478;13.448;2023-05-10T12:32:40;7.72;;;3.10;;
37945;SDS011;23769;52.478;13.448;2023-05-10T12:35:07;5.32;;;3.10;;
37945;SDS011;23769;52.478;13.448;2023-05-10T12:37:36;5.63;;;2.33;;
37945;SDS011;23769;52.478;13.448;2023-05-10T12:40:08;3.20;;;2.28;;
37945;SDS011;23769;52.478;13.448;2023-05-10T12:42:35;4.47;;;2.22;;
37945;SDS011;23769;52.478;13.448;2023-05-10T12:45:03;6.05;;;2.15;;
37945;SDS011;23769;52.478;13.448;2023-05-10T12:47:31;2.95;;;2.22;;
37945;SDS011;23769;52.478;13.448;2023-05-10T12:49:59;4.60;;;2.95;;
37945;SDS011;23769;52.478;13.448;2023-05-10T12:52:27;3.97;;;2.25;;
37945;SDS011;23769;52.478;13.448;2023-05-10T12:54:55;5.93;;;2.42;;
37945;SDS011;23769;52.478;13.448;2023-05-10T12:57:22;2.70;;;2.13;;
37945;SDS011;23769;52.478;13.448;2023-05-10T12:59:49;6.32;;;2.28;;
37945;SDS011;23769;52.478;13.448;2023-05-10T13:02:16;4.75;;;2.70;;
37945;SDS011;23769;52.478;13.448;2023-05-10T13:04:45;2.45;;;2.13;;
37945;SDS011;23769;52.478;13.448;2023-05-10T13:07:13;3.70;;;2.25;;
37945;SDS011;23769;52.478;13.448;2023-05-10T13:09:40;4.28;;;2.30;;
37945;SDS011;23769;52.478;13.448;2023-05-10T13:12:08;5.10;;;2.22;;
37945;SDS011;23769;52.478;13.448;2023-05-10T13:14:35;3.67;;;2.45;;
37945;SDS011;23769;52.478;13.448;2023-05-10T13:17:03;5.78;;;2.33;;
37945;SDS011;23769;52.478;13.448;2023-05-10T13:19:30;6.60;;;3.10;;
37945;SDS011;23769;52.478;13.448;2023-05-10T13:21:57;3.85;;;2.35;;
37945;SDS011;23769;52.478;13.448;2023-05-10T13:24:25;3.55;;;2.60;;
37945;SDS011;23769;52.478;13.448;2023-05-10T13:26:53;4.57;;;3.03;;
37945;SDS011;23769;52.478;13.448;2023-05-10T13:29:20;5.07;;;2.15;;
37945;SDS011;23769;52.478;13.448;2023-05-10T13:31:47;3.40;;;2.50;;
37945;SDS011;23769;52.478;13.448;2023-05-10T13:34:14;3.35;;;2.13;;
37945;SDS011;23769;52.478;13.448;2023-05-10T13:36:45;3.90;;;2.90;;
37945;SDS011;23769;52.478;13.448;2023-05-10T13:39:12;4.78;;;2.50;;
37945;SDS011;23769;52.478;13.448;2023-05-10T13:41:40;4.03;;;2.58;;
37945;SDS011;23769;52.478;13.448;2023-05-10T13:44:08;3.35;;;2.20;;
37945;SDS011;23769;52.478;13.448;2023-05-10T13:46:37;6.38;;;2.60;;
37945;SDS011;23769;52.478;13.448;2023-05-10T13:49:04;7.78;;;2.85;;
37945;SDS011;23769;52.478;13.448;2023-05-10T13:51:31;3.20;;;2.35;;
37945;SDS011;23769;52.478;13.448;2023-05-10T13:53:59;9.20;;;2.67;;
37945;SDS011;23769;52.478;13.448;2023-05-10T13:56:26;3.60;;;2.95;;
37945;SDS011;23769;52.478;13.448;2023-05-10T13:58:55;4.38;;;2.20;;
37945;SDS011;23769;52.478;13.448;2023-05-10T14:01:23;5.13;;;2.30;;
37945;SDS011;23769;52.478;13.448;2023-05-10T14:03:50;4.90;;;2.80;;
37945;SDS011;23769;52.478;13.448;2023-05-10T14:06:17;5.38;;;2.67;;
37945;SDS011;23769;52.478;13.448;2023-05-10T14:08:44;4.82;;;2.53;;
37945;SDS011;23769;52.478;13.448;2023-05-10T14:11:11;4.43;;;2.33;;
37945;SDS011;23769;52.478;13.448;2023-05-10T14:13:39;6.20;;;2.80;;
37945;SDS011;23769;52.478;13.448;2023-05-10T14:16:07;3.65;;;2.13;;
37945;SDS011;23769;52.478;13.448;2023-05-10T14:18:34;5.40;;;2.70;;
37945;SDS011;23769;52.478;13.448;2023-05-10T14:21:02;4.63;;;2.05;;
37945;SDS011;23769;52.478;13.448;2023-05-10T14:23:29;5.97;;;2.10;;
37945;SDS011;23769;52.478;13.448;2023-05-10T14:25:57;4.90;;;2.47;;
37945;SDS011;23769;52.478;13.448;2023-05-10T14:28:24;5.25;;;2.88;;
37945;SDS011;23769;52.478;13.448;2023-05-10T14:30:51;3.13;;;2.00;;
37945;SDS011;23769;52.478;13.448;2023-05-10T14:33:19;3.67;;;2.20;;
37945;SDS011;23769;52.478;13.448;2023-05-10T14:35:47;4.18;;;2.58;;
37945;SDS011;23769;52.478;13.448;2023-05-10T14:38:14;4.38;;;2.28;;
37945;SDS011;23769;52.478;13.448;2023-05-10T14:40:41;4.85;;;2.38;;
37945;SDS011;23769;52.478;13.448;2023-05-10T14:43:08;5.03;;;3.00;;